sensor_id;sensor_type;location;lat;lon;timestamp;temperature;humidity
50969;DHT22;36982;51.474;7.228;2024-03-02T00:00:25;8.00;1.00
50969;DHT22;36982;51.474;7.228;2024-03-02T00:02:52;8.00;1.00
50969;DHT22;36982;51.474;7.228;2024-03-02T00:05:22;8.00;1.00
50969;DHT22;36982;51.474;7.228;2024-03-02T00:07:56;7.90;1.00
50969;DHT22;36982;51.474;7.228;2024-03-02T00:10:26;8.00;1.00
50969;DHT22;36982;51.474;7.228;2024-03-02T00:12:57;8.00;1.00
50969;DHT22;36982;51.474;7.228;2024-03-02T00:15:42;8.00;1.00
50969;DHT22;36982;51.474;7.228;2024-03-02T00:18:12;7.90;1.00
50969;DHT22;36982;51.474;7.228;2024-03-02T00:20:39;8.00;1.00
50969;DHT22;36982;51.474;7.228;2024-03-02T00:23:09;7.90;1.00
50969;DHT22;36982;51.474;7.228;2024-03-02T00:25:44;8.00;1.00
50969;DHT22;36982;51.474;7.228;2024-03-02T00:28:31;8.00;1.00
50969;DHT22;36982;51.474;7.228;2024-03-02T00:33:30;7.90;1.00
50969;DHT22;36982;51.474;7.228;2024-03-02T00:35:57;7.90;1.00
50969;DHT22;36982;51.474;7.228;2024-03-02T00:38:23;7.80;1.00
50969;DHT22;36982;51.474;7.228;2024-03-02T00:40:49;7.90;1.00
50969;DHT22;36982;51.474;7.228;2024-03-02T00:46:00;7.80;1.00
50969;DHT22;36982;51.474;7.228;2024-03-02T00:48:26;7.80;1.00
50969;DHT22;36982;51.474;7.228;2024-03-02T00:50:55;7.80;1.00
50969;DHT22;36982;51.474;7.228;2024-03-02T00:53:23;8.00;1.00
50969;DHT22;36982;51.474;7.228;2024-03-02T00:55:52;7.90;1.00
50969;DHT22;36982;51.474;7.228;2024-03-02T00:58:18;8.10;1.00
50969;DHT22;36982;51.474;7.228;2024-03-02T01:00:44;7.70;1.00
50969;DHT22;36982;51.474;7.228;2024-03-02T01:03:09;7.70;1.00
50969;DHT22;36982;51.474;7.228;2024-03-02T01:05:36;7.70;1.00
50969;DHT22;36982;51.474;7.228;2024-03-02T01:08:02;7.70;1.00
50969;DHT22;36982;51.474;7.228;2024-03-02T01:10:27;7.80;1.00
50969;DHT22;36982;51.474;7.228;2024-03-02T01:12:53;7.80;1.00
50969;DHT22;36982;51.474;7.228;2024-03-02T01:15:19;7.90;1.00
50969;DHT22;36982;51.474;7.228;2024-03-02T01:17:45;7.90;1.00
50969;DHT22;36982;51.474;7.228;2024-03-02T01:20:11;7.60;1.00
50969;DHT22;36982;51.474;7.228;2024-03-02T01:22:36;7.70;1.00
50969;DHT22;36982;51.474;7.228;2024-03-02T01:25:03;7.80;1.00
50969;DHT22;36982;51.474;7.228;2024-03-02T01:27:28;7.90;1.00
50969;DHT22;36982;51.474;7.228;2024-03-02T01:29:54;7.90;1.00
50969;DHT22;36982;51.474;7.228;2024-03-02T01:32:20;8.10;1.00
50969;DHT22;36982;51.474;7.228;2024-03-02T01:34:46;8.00;1.00
50969;DHT22;36982;51.474;7.228;2024-03-02T01:37:11;8.00;1.00
50969;DHT22;36982;51.474;7.228;2024-03-02T01:39:37;8.10;1.00
50969;DHT22;36982;51.474;7.228;2024-03-02T01:42:03;8.10;1.00
50969;DHT22;36982;51.474;7.228;2024-03-02T01:44:28;8.10;1.00
50969;DHT22;36982;51.474;7.228;2024-03-02T01:46:54;8.20;1.00
50969;DHT22;36982;51.474;7.228;2024-03-02T01:49:19;8.30;1.00
50969;DHT22;36982;51.474;7.228;2024-03-02T01:51:45;8.30;1.00
50969;DHT22;36982;51.474;7.228;2024-03-02T01:54:11;8.50;1.00
50969;DHT22;36982;51.474;7.228;2024-03-02T01:56:37;8.20;1.00
50969;DHT22;36982;51.474;7.228;2024-03-02T01:59:02;8.20;1.00
50969;DHT22;36982;51.474;7.228;2024-03-02T02:01:28;8.00;1.00
50969;DHT22;36982;51.474;7.228;2024-03-02T02:03:54;8.10;1.00
50969;DHT22;36982;51.474;7.228;2024-03-02T02:06:20;8.00;1.00
50969;DHT22;36982;51.474;7.228;2024-03-02T02:08:46;7.90;1.00
50969;DHT22;36982;51.474;7.228;2024-03-02T02:11:15;7.80;1.00
50969;DHT22;36982;51.474;7.228;2024-03-02T02:13:40;7.80;1.00
50969;DHT22;36982;51.474;7.228;2024-03-02T02:16:07;7.90;1.00
50969;DHT22;36982;51.474;7.228;2024-03-02T02:18:33;7.90;1.00
50969;DHT22;36982;51.474;7.228;2024-03-02T02:20:59;8.10;1.00
50969;DHT22;36982;51.474;7.228;2024-03-02T02:23:25;7.90;1.00
50969;DHT22;36982;51.474;7.228;2024-03-02T02:25:50;7.80;1.00
50969;DHT22;36982;51.474;7.228;2024-03-02T02:28:16;7.90;1.00
50969;DHT22;36982;51.474;7.228;2024-03-02T02:30:42;7.90;1.00
50969;DHT22;36982;51.474;7.228;2024-03-02T02:33:08;7.90;1.00
50969;DHT22;36982;51.474;7.228;2024-03-02T02:35:34;7.90;1.00
50969;DHT22;36982;51.474;7.228;2024-03-02T02:38:00;7.90;1.00
50969;DHT22;36982;51.474;7.228;2024-03-02T02:40:26;7.80;1.00
50969;DHT22;36982;51.474;7.228;2024-03-02T02:42:52;7.90;1.00
50969;DHT22;36982;51.474;7.228;2024-03-02T02:45:18;7.90;1.00
50969;DHT22;36982;51.474;7.228;2024-03-02T02:47:44;8.00;1.00
50969;DHT22;36982;51.474;7.228;2024-03-02T02:50:11;8.10;1.00
50969;DHT22;36982;51.474;7.228;2024-03-02T02:52:39;8.10;1.00
50969;DHT22;36982;51.474;7.228;2024-03-02T02:55:07;8.10;1.00
50969;DHT22;36982;51.474;7.228;2024-03-02T02:57:33;8.10;1.00
50969;DHT22;36982;51.474;7.228;2024-03-02T03:00:06;8.10;1.00
50969;DHT22;36982;51.474;7.228;2024-03-02T03:02:37;8.10;1.00
50969;DHT22;36982;51.474;7.228;2024-03-02T03:05:03;8.10;1.00
50969;DHT22;36982;51.474;7.228;2024-03-02T03:07:29;8.10;1.00
50969;DHT22;36982;51.474;7.228;2024-03-02T03:09:54;8.20;1.00
50969;DHT22;36982;51.474;7.228;2024-03-02T03:12:20;8.20;1.00
50969;DHT22;36982;51.474;7.228;2024-03-02T03:14:45;8.20;1.00
50969;DHT22;36982;51.474;7.228;2024-03-02T03:17:11;8.20;1.00
50969;DHT22;36982;51.474;7.228;2024-03-02T03:19:38;8.30;1.00
50969;DHT22;36982;51.474;7.228;2024-03-02T03:22:04;8.20;1.00
50969;DHT22;36982;51.474;7.228;2024-03-02T03:24:29;8.30;1.00
50969;DHT22;36982;51.474;7.228;2024-03-02T03:26:55;8.20;1.00
50969;DHT22;36982;51.474;7.228;2024-03-02T03:29:21;8.20;1.00
50969;DHT22;36982;51.474;7.228;2024-03-02T03:31:46;8.30;1.00
50969;DHT22;36982;51.474;7.228;2024-03-02T03:34:12;8.30;1.00
50969;DHT22;36982;51.474;7.228;2024-03-02T03:36:41;8.30;1.00
50969;DHT22;36982;51.474;7.228;2024-03-02T03:39:07;8.40;1.00
50969;DHT22;36982;51.474;7.228;2024-03-02T03:41:32;8.50;1.00
50969;DHT22;36982;51.474;7.228;2024-03-02T03:43:58;8.60;1.00
50969;DHT22;36982;51.474;7.228;2024-03-02T03:46:23;8.50;1.00
50969;DHT22;36982;51.474;7.228;2024-03-02T03:48:49;8.50;1.00
50969;DHT22;36982;51.474;7.228;2024-03-02T03:51:15;8.50;1.00
50969;DHT22;36982;51.474;7.228;2024-03-02T03:53:40;8.50;1.00
50969;DHT22;36982;51.474;7.228;2024-03-02T03:56:06;8.50;1.00
50969;DHT22;36982;51.474;7.228;2024-03-02T03:58:31;8.60;1.00
50969;DHT22;36982;51.474;7.228;2024-03-02T04:00:57;8.60;1.00
50969;DHT22;36982;51.474;7.228;2024-03-02T04:03:23;8.80;1.00
50969;DHT22;36982;51.474;7.228;2024-03-02T04:05:48;8.60;1.00
50969;DHT22;36982;51.474;7.228;2024-03-02T04:08:14;8.70;1.00
50969;DHT22;36982;51.474;7.228;2024-03-02T04:10:39;8.70;1.00
50969;DHT22;36982;51.474;7.228;2024-03-02T04:13:07;8.60;1.00
50969;DHT22;36982;51.474;7.228;2024-03-02T04:15:33;8.60;1.00
50969;DHT22;36982;51.474;7.228;2024-03-02T04:17:58;8.50;1.00
50969;DHT22;36982;51.474;7.228;2024-03-02T04:20:24;8.60;1.00
50969;DHT22;36982;51.474;7.228;2024-03-02T04:22:50;8.50;1.00
50969;DHT22;36982;51.474;7.228;2024-03-02T04:25:16;8.40;1.00
50969;DHT22;36982;51.474;7.228;2024-03-02T04:27:42;8.50;1.00
50969;DHT22;36982;51.474;7.228;2024-03-02T04:30:07;8.50;1.00
50969;DHT22;36982;51.474;7.228;2024-03-02T04:32:33;8.50;1.00
50969;DHT22;36982;51.474;7.228;2024-03-02T04:34:59;8.60;1.00
50969;DHT22;36982;51.474;7.228;2024-03-02T04:37:25;8.50;1.00
50969;DHT22;36982;51.474;7.228;2024-03-02T04:39:50;8.50;1.00
50969;DHT22;36982;51.474;7.228;2024-03-02T04:42:16;8.50;1.00
50969;DHT22;36982;51.474;7.228;2024-03-02T04:44:41;8.60;1.00
50969;DHT22;36982;51.474;7.228;2024-03-02T04:47:07;8.50;1.00
50969;DHT22;36982;51.474;7.228;2024-03-02T04:49:32;8.50;1.00
50969;DHT22;36982;51.474;7.228;2024-03-02T04:51:58;8.50;1.00
50969;DHT22;36982;51.474;7.228;2024-03-02T04:54:24;8.30;1.00
50969;DHT22;36982;51.474;7.228;2024-03-02T04:56:49;8.30;1.00
50969;DHT22;36982;51.474;7.228;2024-03-02T04:59:16;8.20;1.00
50969;DHT22;36982;51.474;7.228;2024-03-02T05:01:42;8.10;1.00
50969;DHT22;36982;51.474;7.228;2024-03-02T05:04:08;8.20;1.00
50969;DHT22;36982;51.474;7.228;2024-03-02T05:06:36;8.10;1.00
50969;DHT22;36982;51.474;7.228;2024-03-02T05:09:01;8.00;1.00
50969;DHT22;36982;51.474;7.228;2024-03-02T05:11:27;7.90;1.00
50969;DHT22;36982;51.474;7.228;2024-03-02T05:14:05;7.90;1.00
50969;DHT22;36982;51.474;7.228;2024-03-02T05:16:34;7.90;1.00
50969;DHT22;36982;51.474;7.228;2024-03-02T05:19:00;7.70;1.00
50969;DHT22;36982;51.474;7.228;2024-03-02T05:21:26;7.70;1.00
50969;DHT22;36982;51.474;7.228;2024-03-02T05:23:52;7.60;1.00
50969;DHT22;36982;51.474;7.228;2024-03-02T05:26:17;7.60;1.00
50969;DHT22;36982;51.474;7.228;2024-03-02T05:28:43;7.60;1.00
50969;DHT22;36982;51.474;7.228;2024-03-02T05:31:15;7.60;1.00
50969;DHT22;36982;51.474;7.228;2024-03-02T05:33:40;7.50;1.00
50969;DHT22;36982;51.474;7.228;2024-03-02T05:36:06;7.40;1.00
50969;DHT22;36982;51.474;7.228;2024-03-02T05:38:34;7.50;1.00
50969;DHT22;36982;51.474;7.228;2024-03-02T05:41:00;7.50;1.00
50969;DHT22;36982;51.474;7.228;2024-03-02T05:43:25;7.50;1.00
50969;DHT22;36982;51.474;7.228;2024-03-02T05:45:51;7.50;1.00
50969;DHT22;36982;51.474;7.228;2024-03-02T05:48:17;7.50;1.00
50969;DHT22;36982;51.474;7.228;2024-03-02T05:50:42;7.50;1.00
50969;DHT22;36982;51.474;7.228;2024-03-02T05:53:08;7.50;1.00
50969;DHT22;36982;51.474;7.228;2024-03-02T05:55:33;7.50;1.00
50969;DHT22;36982;51.474;7.228;2024-03-02T05:57:59;7.40;1.00
50969;DHT22;36982;51.474;7.228;2024-03-02T06:00:36;7.40;1.00
50969;DHT22;36982;51.474;7.228;2024-03-02T06:03:02;7.40;1.00
50969;DHT22;36982;51.474;7.228;2024-03-02T06:05:28;7.40;1.00
50969;DHT22;36982;51.474;7.228;2024-03-02T06:07:54;7.50;1.00
50969;DHT22;36982;51.474;7.228;2024-03-02T06:10:20;7.50;1.00
50969;DHT22;36982;51.474;7.228;2024-03-02T06:12:46;7.50;1.00
50969;DHT22;36982;51.474;7.228;2024-03-02T06:15:11;7.40;1.00
50969;DHT22;36982;51.474;7.228;2024-03-02T06:17:37;7.40;1.00
50969;DHT22;36982;51.474;7.228;2024-03-02T06:20:03;7.40;1.00
50969;DHT22;36982;51.474;7.228;2024-03-02T06:22:29;7.40;1.00
50969;DHT22;36982;51.474;7.228;2024-03-02T06:24:54;7.40;1.00
50969;DHT22;36982;51.474;7.228;2024-03-02T06:27:20;7.40;1.00
50969;DHT22;36982;51.474;7.228;2024-03-02T06:29:45;7.30;1.00
50969;DHT22;36982;51.474;7.228;2024-03-02T06:32:11;7.30;1.00
50969;DHT22;36982;51.474;7.228;2024-03-02T06:34:37;7.50;1.00
50969;DHT22;36982;51.474;7.228;2024-03-02T06:37:02;7.50;1.00
50969;DHT22;36982;51.474;7.228;2024-03-02T06:39:28;7.40;1.00
50969;DHT22;36982;51.474;7.228;2024-03-02T06:41:54;7.50;1.00
50969;DHT22;36982;51.474;7.228;2024-03-02T06:44:19;7.60;1.00
50969;DHT22;36982;51.474;7.228;2024-03-02T06:46:45;7.50;1.00
50969;DHT22;36982;51.474;7.228;2024-03-02T06:49:10;7.50;1.00
50969;DHT22;36982;51.474;7.228;2024-03-02T06:51:36;7.40;1.00
50969;DHT22;36982;51.474;7.228;2024-03-02T06:54:02;7.30;1.00
50969;DHT22;36982;51.474;7.228;2024-03-02T06:56:27;7.40;1.00
50969;DHT22;36982;51.474;7.228;2024-03-02T06:58:53;7.40;1.00
50969;DHT22;36982;51.474;7.228;2024-03-02T07:01:18;7.40;1.00
50969;DHT22;36982;51.474;7.228;2024-03-02T07:03:45;7.40;1.00
50969;DHT22;36982;51.474;7.228;2024-03-02T07:06:11;7.50;1.00
50969;DHT22;36982;51.474;7.228;2024-03-02T07:08:37;7.40;1.00
50969;DHT22;36982;51.474;7.228;2024-03-02T07:11:02;7.60;1.00
50969;DHT22;36982;51.474;7.228;2024-03-02T07:13:28;7.70;1.00
50969;DHT22;36982;51.474;7.228;2024-03-02T07:15:53;7.70;1.00
50969;DHT22;36982;51.474;7.228;2024-03-02T07:18:25;7.70;1.00
50969;DHT22;36982;51.474;7.228;2024-03-02T07:20:50;7.60;1.00
50969;DHT22;36982;51.474;7.228;2024-03-02T07:23:16;7.70;1.00
50969;DHT22;36982;51.474;7.228;2024-03-02T07:25:42;7.80;1.00
50969;DHT22;36982;51.474;7.228;2024-03-02T07:28:07;7.80;1.00
50969;DHT22;36982;51.474;7.228;2024-03-02T07:30:33;7.80;1.00
50969;DHT22;36982;51.474;7.228;2024-03-02T07:32:59;8.00;1.00
50969;DHT22;36982;51.474;7.228;2024-03-02T07:35:25;7.80;1.00
50969;DHT22;36982;51.474;7.228;2024-03-02T07:37:54;7.90;1.00
50969;DHT22;36982;51.474;7.228;2024-03-02T07:40:20;8.00;1.00
50969;DHT22;36982;51.474;7.228;2024-03-02T07:42:46;8.00;1.00
50969;DHT22;36982;51.474;7.228;2024-03-02T07:45:12;8.00;1.00
50969;DHT22;36982;51.474;7.228;2024-03-02T07:47:37;8.10;1.00
50969;DHT22;36982;51.474;7.228;2024-03-02T07:50:03;8.20;1.00
50969;DHT22;36982;51.474;7.228;2024-03-02T07:52:32;8.20;1.00
50969;DHT22;36982;51.474;7.228;2024-03-02T07:54:57;8.30;1.00
50969;DHT22;36982;51.474;7.228;2024-03-02T07:57:23;8.30;1.00
50969;DHT22;36982;51.474;7.228;2024-03-02T07:59:49;8.40;1.00
50969;DHT22;36982;51.474;7.228;2024-03-02T08:02:14;8.40;1.00
50969;DHT22;36982;51.474;7.228;2024-03-02T08:04:41;8.50;1.00
50969;DHT22;36982;51.474;7.228;2024-03-02T08:07:06;8.50;1.00
50969;DHT22;36982;51.474;7.228;2024-03-02T08:09:32;8.60;1.00
50969;DHT22;36982;51.474;7.228;2024-03-02T08:11:58;8.60;1.00
50969;DHT22;36982;51.474;7.228;2024-03-02T08:14:24;8.70;1.00
50969;DHT22;36982;51.474;7.228;2024-03-02T08:16:49;8.80;1.00
50969;DHT22;36982;51.474;7.228;2024-03-02T08:19:15;8.90;1.00
50969;DHT22;36982;51.474;7.228;2024-03-02T08:21:42;9.00;1.00
50969;DHT22;36982;51.474;7.228;2024-03-02T08:24:08;9.00;1.00
50969;DHT22;36982;51.474;7.228;2024-03-02T08:26:34;8.90;1.00
50969;DHT22;36982;51.474;7.228;2024-03-02T08:29:00;9.00;1.00
50969;DHT22;36982;51.474;7.228;2024-03-02T08:31:30;9.00;1.00
50969;DHT22;36982;51.474;7.228;2024-03-02T08:33:55;9.20;1.00
50969;DHT22;36982;51.474;7.228;2024-03-02T08:36:22;9.30;1.00
50969;DHT22;36982;51.474;7.228;2024-03-02T08:38:49;9.40;1.00
50969;DHT22;36982;51.474;7.228;2024-03-02T08:41:15;9.60;1.00
50969;DHT22;36982;51.474;7.228;2024-03-02T08:43:41;9.70;1.00
50969;DHT22;36982;51.474;7.228;2024-03-02T08:46:07;9.90;1.00
50969;DHT22;36982;51.474;7.228;2024-03-02T08:48:33;9.80;1.00
50969;DHT22;36982;51.474;7.228;2024-03-02T08:50:59;9.90;1.00
50969;DHT22;36982;51.474;7.228;2024-03-02T08:53:24;9.80;1.00
50969;DHT22;36982;51.474;7.228;2024-03-02T08:55:50;9.90;1.00
50969;DHT22;36982;51.474;7.228;2024-03-02T08:58:16;9.90;1.00
50969;DHT22;36982;51.474;7.228;2024-03-02T09:00:42;9.90;1.00
50969;DHT22;36982;51.474;7.228;2024-03-02T09:03:08;9.90;1.00
50969;DHT22;36982;51.474;7.228;2024-03-02T09:05:33;10.00;1.00
50969;DHT22;36982;51.474;7.228;2024-03-02T09:07:59;9.90;1.00
50969;DHT22;36982;51.474;7.228;2024-03-02T09:10:25;10.10;1.00
50969;DHT22;36982;51.474;7.228;2024-03-02T09:12:50;10.00;1.00
50969;DHT22;36982;51.474;7.228;2024-03-02T09:15:16;10.20;1.00
50969;DHT22;36982;51.474;7.228;2024-03-02T09:17:41;10.30;1.00
50969;DHT22;36982;51.474;7.228;2024-03-02T09:20:07;10.40;1.00
50969;DHT22;36982;51.474;7.228;2024-03-02T09:22:33;10.40;1.00
50969;DHT22;36982;51.474;7.228;2024-03-02T09:24:58;10.40;1.00
50969;DHT22;36982;51.474;7.228;2024-03-02T09:27:24;10.40;1.00
50969;DHT22;36982;51.474;7.228;2024-03-02T09:29:50;10.60;1.00
50969;DHT22;36982;51.474;7.228;2024-03-02T09:32:15;10.60;1.00
50969;DHT22;36982;51.474;7.228;2024-03-02T09:34:41;10.50;99.90
50969;DHT22;36982;51.474;7.228;2024-03-02T09:37:07;10.60;99.90
50969;DHT22;36982;51.474;7.228;2024-03-02T09:39:33;10.60;99.90
50969;DHT22;36982;51.474;7.228;2024-03-02T09:42:01;10.70;99.90
50969;DHT22;36982;51.474;7.228;2024-03-02T09:44:29;10.60;99.90
50969;DHT22;36982;51.474;7.228;2024-03-02T09:46:55;10.70;99.90
50969;DHT22;36982;51.474;7.228;2024-03-02T09:49:21;10.80;99.90
50969;DHT22;36982;51.474;7.228;2024-03-02T09:51:48;10.70;99.90
50969;DHT22;36982;51.474;7.228;2024-03-02T09:54:16;10.90;99.90
50969;DHT22;36982;51.474;7.228;2024-03-02T09:56:42;11.00;99.90
50969;DHT22;36982;51.474;7.228;2024-03-02T09:59:08;11.00;99.90
50969;DHT22;36982;51.474;7.228;2024-03-02T10:01:34;11.00;99.90
50969;DHT22;36982;51.474;7.228;2024-03-02T10:04:00;11.20;99.90
50969;DHT22;36982;51.474;7.228;2024-03-02T10:06:27;11.00;99.90
50969;DHT22;36982;51.474;7.228;2024-03-02T10:08:54;11.10;99.90
50969;DHT22;36982;51.474;7.228;2024-03-02T10:11:30;11.10;99.90
50969;DHT22;36982;51.474;7.228;2024-03-02T10:14:13;11.30;99.90
50969;DHT22;36982;51.474;7.228;2024-03-02T10:16:41;11.30;99.90
50969;DHT22;36982;51.474;7.228;2024-03-02T10:21:47;11.40;99.90
50969;DHT22;36982;51.474;7.228;2024-03-02T10:24:15;11.40;99.90
50969;DHT22;36982;51.474;7.228;2024-03-02T10:26:40;11.50;99.90
50969;DHT22;36982;51.474;7.228;2024-03-02T10:29:08;11.50;99.90
50969;DHT22;36982;51.474;7.228;2024-03-02T10:31:34;11.50;99.90
50969;DHT22;36982;51.474;7.228;2024-03-02T10:34:00;11.60;99.90
50969;DHT22;36982;51.474;7.228;2024-03-02T10:36:28;11.70;99.90
50969;DHT22;36982;51.474;7.228;2024-03-02T10:38:56;11.70;99.90
50969;DHT22;36982;51.474;7.228;2024-03-02T10:41:26;11.70;99.90
50969;DHT22;36982;51.474;7.228;2024-03-02T10:43:53;11.80;99.90
50969;DHT22;36982;51.474;7.228;2024-03-02T10:46:35;12.00;99.90
50969;DHT22;36982;51.474;7.228;2024-03-02T10:49:02;12.00;99.90
50969;DHT22;36982;51.474;7.228;2024-03-02T10:51:30;12.30;99.90
50969;DHT22;36982;51.474;7.228;2024-03-02T10:54:00;12.10;99.90
50969;DHT22;36982;51.474;7.228;2024-03-02T10:56:33;12.20;99.90
50969;DHT22;36982;51.474;7.228;2024-03-02T11:01:32;12.30;99.90
50969;DHT22;36982;51.474;7.228;2024-03-02T11:03:59;12.30;99.90
50969;DHT22;36982;51.474;7.228;2024-03-02T11:06:33;12.40;99.90
50969;DHT22;36982;51.474;7.228;2024-03-02T11:09:06;12.60;99.90
50969;DHT22;36982;51.474;7.228;2024-03-02T11:11:36;12.50;99.90
50969;DHT22;36982;51.474;7.228;2024-03-02T11:14:04;12.50;99.90
50969;DHT22;36982;51.474;7.228;2024-03-02T11:16:37;12.50;99.90
50969;DHT22;36982;51.474;7.228;2024-03-02T11:19:06;12.70;99.90
50969;DHT22;36982;51.474;7.228;2024-03-02T11:21:36;12.50;99.90
50969;DHT22;36982;51.474;7.228;2024-03-02T11:26:47;12.60;99.90
50969;DHT22;36982;51.474;7.228;2024-03-02T11:32:22;12.60;99.90
50969;DHT22;36982;51.474;7.228;2024-03-02T11:34:50;12.60;98.80
50969;DHT22;36982;51.474;7.228;2024-03-02T11:37:17;12.70;99.90
50969;DHT22;36982;51.474;7.228;2024-03-02T11:39:45;12.70;74.30
50969;DHT22;36982;51.474;7.228;2024-03-02T11:42:11;12.80;69.20
50969;DHT22;36982;51.474;7.228;2024-03-02T11:44:41;12.80;61.50
50969;DHT22;36982;51.474;7.228;2024-03-02T11:47:08;12.90;44.30
50969;DHT22;36982;51.474;7.228;2024-03-02T11:49:41;12.90;16.30
50969;DHT22;36982;51.474;7.228;2024-03-02T11:52:10;12.90;2.70
50969;DHT22;36982;51.474;7.228;2024-03-02T11:54:41;13.00;1.00
50969;DHT22;36982;51.474;7.228;2024-03-02T11:57:12;12.90;1.00
50969;DHT22;36982;51.474;7.228;2024-03-02T11:59:39;13.10;1.00
50969;DHT22;36982;51.474;7.228;2024-03-02T12:02:06;13.10;1.00
50969;DHT22;36982;51.474;7.228;2024-03-02T12:04:31;13.20;1.00
50969;DHT22;36982;51.474;7.228;2024-03-02T12:06:58;13.30;99.90
50969;DHT22;36982;51.474;7.228;2024-03-02T12:09:28;13.40;99.90
50969;DHT22;36982;51.474;7.228;2024-03-02T12:12:06;13.50;99.90
50969;DHT22;36982;51.474;7.228;2024-03-02T12:14:34;13.50;99.90
50969;DHT22;36982;51.474;7.228;2024-03-02T12:17:00;13.60;99.90
50969;DHT22;36982;51.474;7.228;2024-03-02T12:19:27;13.60;99.90
50969;DHT22;36982;51.474;7.228;2024-03-02T12:21:53;13.70;99.90
50969;DHT22;36982;51.474;7.228;2024-03-02T12:24:21;13.70;99.90
50969;DHT22;36982;51.474;7.228;2024-03-02T12:26:47;13.80;90.90
50969;DHT22;36982;51.474;7.228;2024-03-02T12:29:13;13.80;48.10
50969;DHT22;36982;51.474;7.228;2024-03-02T12:31:41;14.10;23.90
50969;DHT22;36982;51.474;7.228;2024-03-02T12:34:07;14.10;1.00
50969;DHT22;36982;51.474;7.228;2024-03-02T12:36:40;14.10;99.90
50969;DHT22;36982;51.474;7.228;2024-03-02T12:39:10;14.30;99.90
50969;DHT22;36982;51.474;7.228;2024-03-02T12:41:39;14.30;99.90
50969;DHT22;36982;51.474;7.228;2024-03-02T12:44:05;14.30;99.90
50969;DHT22;36982;51.474;7.228;2024-03-02T12:46:32;14.30;99.90
50969;DHT22;36982;51.474;7.228;2024-03-02T12:48:58;14.40;99.90
50969;DHT22;36982;51.474;7.228;2024-03-02T12:51:24;14.40;99.90
50969;DHT22;36982;51.474;7.228;2024-03-02T12:53:54;14.50;93.20
50969;DHT22;36982;51.474;7.228;2024-03-02T12:56:21;14.50;1.00
50969;DHT22;36982;51.474;7.228;2024-03-02T12:58:46;14.50;1.00
50969;DHT22;36982;51.474;7.228;2024-03-02T13:01:15;14.50;99.90
50969;DHT22;36982;51.474;7.228;2024-03-02T13:03:43;14.40;99.90
50969;DHT22;36982;51.474;7.228;2024-03-02T13:06:09;14.40;99.90
50969;DHT22;36982;51.474;7.228;2024-03-02T13:08:35;14.50;99.90
50969;DHT22;36982;51.474;7.228;2024-03-02T13:11:01;14.60;99.90
50969;DHT22;36982;51.474;7.228;2024-03-02T13:13:30;14.50;99.90
50969;DHT22;36982;51.474;7.228;2024-03-02T13:15:56;14.50;1.00
50969;DHT22;36982;51.474;7.228;2024-03-02T13:18:22;14.50;99.90
50969;DHT22;36982;51.474;7.228;2024-03-02T13:20:48;14.30;99.90
50969;DHT22;36982;51.474;7.228;2024-03-02T13:23:13;14.20;99.90
50969;DHT22;36982;51.474;7.228;2024-03-02T13:25:39;14.10;99.90
50969;DHT22;36982;51.474;7.228;2024-03-02T13:28:05;13.90;99.90
50969;DHT22;36982;51.474;7.228;2024-03-02T13:30:32;14.00;99.90
50969;DHT22;36982;51.474;7.228;2024-03-02T13:32:58;14.00;99.90
50969;DHT22;36982;51.474;7.228;2024-03-02T13:35:23;13.90;99.90
50969;DHT22;36982;51.474;7.228;2024-03-02T13:37:49;14.00;99.90
50969;DHT22;36982;51.474;7.228;2024-03-02T13:40:15;14.10;99.90
50969;DHT22;36982;51.474;7.228;2024-03-02T13:42:48;14.00;94.30
50969;DHT22;36982;51.474;7.228;2024-03-02T13:45:14;14.00;99.90
50969;DHT22;36982;51.474;7.228;2024-03-02T13:47:40;14.00;99.90
50969;DHT22;36982;51.474;7.228;2024-03-02T13:50:06;13.90;99.90
50969;DHT22;36982;51.474;7.228;2024-03-02T13:52:32;14.00;99.90
50969;DHT22;36982;51.474;7.228;2024-03-02T13:54:58;14.10;99.90
50969;DHT22;36982;51.474;7.228;2024-03-02T13:57:23;14.20;99.90
50969;DHT22;36982;51.474;7.228;2024-03-02T13:59:49;14.10;99.90
50969;DHT22;36982;51.474;7.228;2024-03-02T14:02:16;14.10;99.90
50969;DHT22;36982;51.474;7.228;2024-03-02T14:04:42;14.10;92.30
50969;DHT22;36982;51.474;7.228;2024-03-02T14:07:08;14.10;54.00
50969;DHT22;36982;51.474;7.228;2024-03-02T14:09:33;14.30;25.30
50969;DHT22;36982;51.474;7.228;2024-03-02T14:11:59;14.20;99.40
50969;DHT22;36982;51.474;7.228;2024-03-02T14:14:28;14.30;99.90
50969;DHT22;36982;51.474;7.228;2024-03-02T14:16:57;14.30;51.30
50969;DHT22;36982;51.474;7.228;2024-03-02T14:19:29;14.50;1.00
50969;DHT22;36982;51.474;7.228;2024-03-02T14:21:54;14.40;1.00
50969;DHT22;36982;51.474;7.228;2024-03-02T14:24:20;14.50;43.10
50969;DHT22;36982;51.474;7.228;2024-03-02T14:26:49;14.40;1.00
50969;DHT22;36982;51.474;7.228;2024-03-02T14:29:14;14.40;1.00
50969;DHT22;36982;51.474;7.228;2024-03-02T14:31:40;14.40;11.10
50969;DHT22;36982;51.474;7.228;2024-03-02T14:34:06;14.20;1.00
50969;DHT22;36982;51.474;7.228;2024-03-02T14:36:31;14.20;6.90
50969;DHT22;36982;51.474;7.228;2024-03-02T14:38:57;14.30;1.00
50969;DHT22;36982;51.474;7.228;2024-03-02T14:41:22;14.20;70.30
50969;DHT22;36982;51.474;7.228;2024-03-02T14:43:50;14.10;22.70
50969;DHT22;36982;51.474;7.228;2024-03-02T14:46:15;14.20;62.40
50969;DHT22;36982;51.474;7.228;2024-03-02T14:48:43;14.00;1.00
50969;DHT22;36982;51.474;7.228;2024-03-02T14:51:09;14.00;1.00
50969;DHT22;36982;51.474;7.228;2024-03-02T14:53:36;14.10;1.00
50969;DHT22;36982;51.474;7.228;2024-03-02T14:56:03;14.30;1.00
50969;DHT22;36982;51.474;7.228;2024-03-02T14:58:29;14.20;12.00
50969;DHT22;36982;51.474;7.228;2024-03-02T15:00:55;14.10;89.50
50969;DHT22;36982;51.474;7.228;2024-03-02T15:03:21;14.20;99.90
50969;DHT22;36982;51.474;7.228;2024-03-02T15:05:46;14.00;94.80
50969;DHT22;36982;51.474;7.228;2024-03-02T15:08:13;14.10;99.90
50969;DHT22;36982;51.474;7.228;2024-03-02T15:10:38;13.80;99.90
50969;DHT22;36982;51.474;7.228;2024-03-02T15:13:04;13.90;99.90
50969;DHT22;36982;51.474;7.228;2024-03-02T15:15:29;13.90;99.90
50969;DHT22;36982;51.474;7.228;2024-03-02T15:17:55;13.90;99.90
50969;DHT22;36982;51.474;7.228;2024-03-02T15:20:21;14.00;99.90
50969;DHT22;36982;51.474;7.228;2024-03-02T15:22:47;13.90;99.90
50969;DHT22;36982;51.474;7.228;2024-03-02T15:25:12;14.00;99.90
50969;DHT22;36982;51.474;7.228;2024-03-02T15:27:38;14.00;99.90
50969;DHT22;36982;51.474;7.228;2024-03-02T15:30:05;13.90;99.90
50969;DHT22;36982;51.474;7.228;2024-03-02T15:32:31;13.90;99.90
50969;DHT22;36982;51.474;7.228;2024-03-02T15:34:59;13.80;99.90
50969;DHT22;36982;51.474;7.228;2024-03-02T15:37:25;13.70;99.90
50969;DHT22;36982;51.474;7.228;2024-03-02T15:39:50;13.70;99.90
50969;DHT22;36982;51.474;7.228;2024-03-02T15:42:16;13.70;99.90
50969;DHT22;36982;51.474;7.228;2024-03-02T15:44:43;13.70;99.90
50969;DHT22;36982;51.474;7.228;2024-03-02T15:47:09;13.60;99.90
50969;DHT22;36982;51.474;7.228;2024-03-02T15:49:34;13.60;1.00
50969;DHT22;36982;51.474;7.228;2024-03-02T15:52:00;13.60;1.00
50969;DHT22;36982;51.474;7.228;2024-03-02T15:54:26;13.50;1.00
50969;DHT22;36982;51.474;7.228;2024-03-02T15:56:52;13.40;1.00
50969;DHT22;36982;51.474;7.228;2024-03-02T15:59:18;13.40;1.00
50969;DHT22;36982;51.474;7.228;2024-03-02T16:01:43;13.40;1.00